createdAt,value
2022-10-25T00:00:55.612Z,100.00
2022-10-25T00:03:22.020Z,100.00
2022-10-25T00:05:48.430Z,100.00
2022-10-25T00:08:14.923Z,100.00
2022-10-25T00:10:41.343Z,100.00
2022-10-25T00:13:07.754Z,100.00
2022-10-25T00:15:34.700Z,100.00
2022-10-25T00:18:01.142Z,100.00
2022-10-25T00:20:27.625Z,100.00
2022-10-25T00:22:54.036Z,100.00
2022-10-25T00:25:20.754Z,100.00
2022-10-25T00:27:47.239Z,100.00
2022-10-25T00:30:14.217Z,100.00
2022-10-25T00:32:40.628Z,100.00
2022-10-25T00:35:07.484Z,100.00
2022-10-25T00:37:33.896Z,100.00
2022-10-25T00:40:00.334Z,100.00
2022-10-25T00:42:27.413Z,100.00
2022-10-25T00:44:57.403Z,100.00
2022-10-25T00:47:43.104Z,100.00
2022-10-25T00:50:41.164Z,100.00
2022-10-25T00:53:17.303Z,100.00
2022-10-25T00:55:47.259Z,100.00
2022-10-25T00:58:19.873Z,100.00
2022-10-25T01:00:46.481Z,100.00
2022-10-25T01:03:16.527Z,100.00
2022-10-25T01:05:44.377Z,100.00
2022-10-25T01:08:12.144Z,100.00
2022-10-25T01:10:38.716Z,100.00
2022-10-25T01:13:05.450Z,100.00
2022-10-25T01:16:08.872Z,100.00
2022-10-25T01:18:43.415Z,100.00
2022-10-25T01:21:28.360Z,100.00
2022-10-25T01:24:31.880Z,100.00
2022-10-25T01:27:32.600Z,100.00
2022-10-25T01:30:13.558Z,100.00
2022-10-25T01:32:49.560Z,100.00
2022-10-25T01:35:29.917Z,100.00
2022-10-25T01:38:29.284Z,100.00
2022-10-25T01:41:06.473Z,100.00
2022-10-25T01:43:48.084Z,100.00
2022-10-25T01:46:25.674Z,100.00
2022-10-25T01:49:08.107Z,100.00
2022-10-25T01:51:38.325Z,100.00
2022-10-25T01:54:25.300Z,100.00
2022-10-25T01:57:36.998Z,100.00
2022-10-25T02:00:11.562Z,100.00
2022-10-25T02:03:11.813Z,100.00
2022-10-25T02:05:53.527Z,100.00
2022-10-25T02:08:47.886Z,100.00
2022-10-25T02:11:24.822Z,100.00
2022-10-25T02:14:07.038Z,100.00
2022-10-25T02:17:03.382Z,100.00
2022-10-25T02:19:42.183Z,100.00
2022-10-25T02:22:11.032Z,100.00
2022-10-25T02:24:39.499Z,100.00
2022-10-25T02:27:08.262Z,100.00
2022-10-25T02:29:36.322Z,100.00
2022-10-25T02:32:04.413Z,100.00
2022-10-25T02:34:31.676Z,100.00
2022-10-25T02:36:59.464Z,100.00
2022-10-25T02:39:31.248Z,100.00
2022-10-25T02:41:58.700Z,100.00
2022-10-25T02:44:25.089Z,100.00
2022-10-25T02:46:51.479Z,100.00
2022-10-25T02:49:17.874Z,100.00
2022-10-25T02:51:44.314Z,100.00
2022-10-25T02:54:10.772Z,100.00
2022-10-25T02:56:38.274Z,100.00
2022-10-25T02:59:05.008Z,100.00
2022-10-25T03:01:31.676Z,100.00
2022-10-25T03:03:58.168Z,100.00
2022-10-25T03:06:24.564Z,100.00
2022-10-25T03:08:50.961Z,100.00
2022-10-25T03:11:17.666Z,100.00
2022-10-25T03:13:44.383Z,100.00
2022-10-25T03:16:10.847Z,100.00
2022-10-25T03:18:37.592Z,100.00
2022-10-25T03:21:04.396Z,100.00
2022-10-25T03:23:31.402Z,100.00
2022-10-25T03:25:59.169Z,100.00
2022-10-25T03:28:27.473Z,100.00
2022-10-25T03:30:54.918Z,100.00
2022-10-25T03:33:21.589Z,100.00
2022-10-25T03:35:51.848Z,100.00
2022-10-25T03:38:18.431Z,100.00
2022-10-25T03:40:45.469Z,100.00
2022-10-25T03:43:12.359Z,100.00
2022-10-25T03:45:38.832Z,100.00
2022-10-25T03:48:05.645Z,100.00
2022-10-25T03:50:32.050Z,100.00
2022-10-25T03:52:58.498Z,100.00
2022-10-25T03:55:25.005Z,100.00
2022-10-25T03:57:51.386Z,100.00
2022-10-25T04:00:17.866Z,100.00
2022-10-25T04:02:44.403Z,100.00
2022-10-25T04:05:10.857Z,100.00
2022-10-25T04:07:37.318Z,100.00
2022-10-25T04:10:04.435Z,100.00
2022-10-25T04:12:30.928Z,100.00
2022-10-25T04:14:57.336Z,100.00
2022-10-25T04:17:23.767Z,100.00
2022-10-25T04:19:50.161Z,100.00
2022-10-25T04:22:16.583Z,100.00
2022-10-25T04:24:42.985Z,100.00
2022-10-25T04:27:09.404Z,100.00
2022-10-25T04:29:35.800Z,100.00
2022-10-25T04:32:02.251Z,100.00
2022-10-25T04:34:28.692Z,100.00
2022-10-25T04:36:55.133Z,100.00
2022-10-25T04:39:21.589Z,100.00
2022-10-25T04:41:48.054Z,100.00
2022-10-25T04:44:14.521Z,100.00
2022-10-25T04:46:43.996Z,100.00
2022-10-25T04:49:14.173Z,100.00
2022-10-25T04:51:41.067Z,100.00
2022-10-25T04:54:07.778Z,100.00
2022-10-25T04:56:34.210Z,100.00
2022-10-25T04:59:00.826Z,100.00
2022-10-25T05:01:27.316Z,100.00
2022-10-25T05:03:53.801Z,100.00
2022-10-25T05:06:23.854Z,100.00
2022-10-25T05:08:51.583Z,100.00
2022-10-25T05:11:23.734Z,100.00
2022-10-25T05:13:50.612Z,100.00
2022-10-25T05:16:23.530Z,100.00
2022-10-25T05:18:51.627Z,100.00
2022-10-25T05:21:18.481Z,100.00
2022-10-25T05:23:45.750Z,100.00
2022-10-25T05:26:13.520Z,100.00
2022-10-25T05:28:41.342Z,100.00
2022-10-25T05:33:44.923Z,100.00
2022-10-25T05:36:12.863Z,100.00
2022-10-25T05:38:40.041Z,100.00
2022-10-25T05:41:07.376Z,100.00
2022-10-25T05:43:34.097Z,100.00
2022-10-25T05:46:06.726Z,100.00
2022-10-25T05:48:34.646Z,100.00
2022-10-25T05:51:38.542Z,100.00
2022-10-25T05:54:07.493Z,100.00
2022-10-25T05:56:35.207Z,100.00
2022-10-25T05:59:09.497Z,100.00
2022-10-25T06:01:40.728Z,100.00
2022-10-25T06:04:10.482Z,100.00
2022-10-25T06:06:38.627Z,100.00
2022-10-25T06:09:05.890Z,100.00
2022-10-25T06:11:32.572Z,100.00
2022-10-25T06:13:59.077Z,100.00
2022-10-25T06:16:25.841Z,100.00
2022-10-25T06:18:53.030Z,100.00
2022-10-25T06:21:22.151Z,100.00
2022-10-25T06:23:49.554Z,100.00
2022-10-25T06:26:21.812Z,100.00
2022-10-25T06:28:48.619Z,100.00
2022-10-25T06:31:17.535Z,100.00
2022-10-25T06:33:44.496Z,100.00
2022-10-25T06:36:17.254Z,100.00
2022-10-25T06:38:44.885Z,100.00
2022-10-25T06:41:13.653Z,100.00
2022-10-25T06:43:40.191Z,100.00
2022-10-25T06:46:13.600Z,100.00
2022-10-25T06:48:39.916Z,100.00
2022-10-25T06:51:09.778Z,100.00
2022-10-25T06:53:36.419Z,100.00
2022-10-25T06:56:05.021Z,100.00
2022-10-25T06:58:33.895Z,100.00
2022-10-25T07:01:04.462Z,100.00
2022-10-25T07:03:35.456Z,100.00
2022-10-25T07:06:11.113Z,100.00
2022-10-25T07:08:39.395Z,100.00
2022-10-25T07:11:06.787Z,100.00
2022-10-25T07:13:34.278Z,100.00
2022-10-25T07:16:02.400Z,100.00
2022-10-25T07:18:30.377Z,100.00
2022-10-25T07:21:07.284Z,100.00
2022-10-25T07:23:34.493Z,100.00
2022-10-25T07:26:01.014Z,100.00
2022-10-25T07:28:27.531Z,100.00
2022-10-25T07:30:54.010Z,100.00
2022-10-25T07:33:21.045Z,100.00
2022-10-25T07:36:06.289Z,100.00
2022-10-25T07:38:35.782Z,100.00
2022-10-25T07:41:02.280Z,100.00
2022-10-25T07:43:29.495Z,100.00
2022-10-25T07:45:56.219Z,100.00
2022-10-25T07:48:23.396Z,100.00
2022-10-25T07:50:50.497Z,100.00
2022-10-25T07:53:16.960Z,100.00
2022-10-25T07:55:43.402Z,100.00
2022-10-25T07:58:11.400Z,94.98
2022-10-25T08:00:39.232Z,92.69
2022-10-25T08:03:05.796Z,86.03
2022-10-25T08:05:32.517Z,85.21
2022-10-25T08:07:58.934Z,81.63
2022-10-25T08:10:25.416Z,77.94
2022-10-25T08:12:54.932Z,75.45
2022-10-25T08:15:21.309Z,73.54
2022-10-25T08:17:48.060Z,71.21
2022-10-25T08:20:14.858Z,69.96
2022-10-25T08:22:41.279Z,70.57
2022-10-25T08:25:08.003Z,70.13
2022-10-25T08:27:34.424Z,69.27
2022-10-25T08:30:00.904Z,67.19
2022-10-25T08:32:28.506Z,66.86
2022-10-25T08:34:54.909Z,65.21
2022-10-25T08:37:21.388Z,62.80
2022-10-25T08:39:50.026Z,64.27
2022-10-25T08:42:47.622Z,64.35
2022-10-25T08:45:33.898Z,60.43
2022-10-25T08:48:02.457Z,60.68
2022-10-25T08:50:37.180Z,59.54
2022-10-25T08:53:11.013Z,57.73
2022-10-25T08:55:58.750Z,55.34
2022-10-25T08:58:43.522Z,54.39
2022-10-25T09:01:18.870Z,56.87
2022-10-25T09:03:45.634Z,54.75
2022-10-25T09:06:31.080Z,53.21
2022-10-25T09:09:18.704Z,52.70
2022-10-25T09:11:59.384Z,52.39
2022-10-25T09:14:43.671Z,51.50
2022-10-25T09:17:49.072Z,52.02
2022-10-25T09:20:28.695Z,54.20
2022-10-25T09:23:00.621Z,51.68
2022-10-25T09:25:41.967Z,51.25
2022-10-25T09:28:35.829Z,51.30
2022-10-25T09:31:05.056Z,50.56
2022-10-25T09:33:34.776Z,51.15
2022-10-25T09:36:03.756Z,51.33
2022-10-25T09:38:44.071Z,51.85
2022-10-25T09:41:22.740Z,50.37
2022-10-25T09:44:01.190Z,51.50
2022-10-25T09:46:39.679Z,50.54
2022-10-25T09:49:14.062Z,52.22
2022-10-25T09:51:57.583Z,50.47
2022-10-25T09:55:13.750Z,50.79
2022-10-25T09:57:40.353Z,51.24
2022-10-25T10:00:07.536Z,50.69
2022-10-25T10:02:34.042Z,50.76
2022-10-25T10:05:00.533Z,50.55
2022-10-25T10:07:32.828Z,50.34
2022-10-25T10:10:04.401Z,51.26
2022-10-25T10:12:49.305Z,52.48
2022-10-25T10:15:22.250Z,51.15
2022-10-25T10:18:08.502Z,50.95
2022-10-25T10:20:34.996Z,51.15
2022-10-25T10:23:03.846Z,51.09
2022-10-25T10:25:32.866Z,51.15
2022-10-25T10:27:59.317Z,51.02
2022-10-25T10:30:30.924Z,49.20
2022-10-25T10:33:01.748Z,48.16
2022-10-25T10:35:32.305Z,49.18
2022-10-25T10:38:20.628Z,49.74
2022-10-25T10:40:50.740Z,51.91
2022-10-25T10:43:29.007Z,51.41
2022-10-25T10:46:02.382Z,50.09
2022-10-25T10:48:33.531Z,50.68
2022-10-25T10:51:00.347Z,50.34
2022-10-25T10:53:32.221Z,49.38
2022-10-25T10:56:06.024Z,48.62
2022-10-25T10:58:38.984Z,50.40
2022-10-25T11:01:07.249Z,52.30
2022-10-25T11:03:53.485Z,50.71
2022-10-25T11:06:31.122Z,49.89
2022-10-25T11:09:09.897Z,48.87
2022-10-25T11:11:36.330Z,48.46
2022-10-25T11:14:10.991Z,48.11
2022-10-25T11:16:50.210Z,47.27
2022-10-25T11:19:54.023Z,47.55
2022-10-25T11:22:36.292Z,49.15
2022-10-25T11:25:26.544Z,49.03
2022-10-25T11:28:14.715Z,46.92
2022-10-25T11:30:47.126Z,45.60
2022-10-25T11:33:28.195Z,46.72
2022-10-25T11:36:06.727Z,46.68
2022-10-25T11:39:00.749Z,45.78
2022-10-25T11:41:50.988Z,46.38
2022-10-25T11:44:26.289Z,45.17
2022-10-25T11:47:11.453Z,46.38
2022-10-25T11:50:15.537Z,46.61
2022-10-25T11:53:25.702Z,47.68
2022-10-25T11:55:57.355Z,47.83
2022-10-25T11:58:35.124Z,46.96
2022-10-25T12:01:26.939Z,45.89
2022-10-25T12:04:02.611Z,45.20
2022-10-25T12:06:46.763Z,45.27
2022-10-25T12:09:21.530Z,46.34
2022-10-25T12:11:54.849Z,45.21
2022-10-25T12:14:32.142Z,45.50
2022-10-25T12:17:01.821Z,44.76
2022-10-25T12:19:32.547Z,44.21
2022-10-25T12:22:12.785Z,45.47
2022-10-25T12:24:43.940Z,46.29
2022-10-25T12:27:11.808Z,46.58
2022-10-25T12:29:49.867Z,47.28
2022-10-25T12:32:25.213Z,47.63
2022-10-25T12:34:54.159Z,46.11
2022-10-25T12:37:34.761Z,45.30
2022-10-25T12:40:01.429Z,46.14
2022-10-25T12:42:50.987Z,47.64
2022-10-25T12:45:42.248Z,46.59
2022-10-25T12:48:42.258Z,46.87
2022-10-25T12:51:37.126Z,48.07
2022-10-25T12:54:24.866Z,49.21
2022-10-25T12:57:20.977Z,49.29
2022-10-25T13:00:12.219Z,49.67
2022-10-25T13:03:19.360Z,49.15
2022-10-25T13:06:04.106Z,50.36
2022-10-25T13:08:32.367Z,50.13
2022-10-25T13:11:02.617Z,50.07
2022-10-25T13:13:33.724Z,50.47
2022-10-25T13:16:02.945Z,50.93
2022-10-25T13:18:32.451Z,51.77
2022-10-25T13:21:04.494Z,51.35
2022-10-25T13:23:42.869Z,52.18
2022-10-25T13:26:14.956Z,52.80
2022-10-25T13:28:48.408Z,51.31
2022-10-25T13:31:33.789Z,50.94
2022-10-25T13:34:12.592Z,51.65
2022-10-25T13:36:51.569Z,51.64
2022-10-25T13:39:25.393Z,52.10
2022-10-25T13:41:54.695Z,50.87
2022-10-25T13:44:25.583Z,51.85
2022-10-25T13:46:54.489Z,51.67
2022-10-25T13:49:35.091Z,53.24
2022-10-25T13:52:23.769Z,53.90
2022-10-25T13:54:54.473Z,54.35
2022-10-25T13:57:51.128Z,54.65
2022-10-25T14:00:23.764Z,57.36
2022-10-25T14:03:08.565Z,57.26
2022-10-25T14:05:53.925Z,58.02
2022-10-25T14:08:32.197Z,58.85
2022-10-25T14:11:09.017Z,58.66
2022-10-25T14:13:48.217Z,58.34
2022-10-25T14:16:26.546Z,59.02
2022-10-25T14:18:56.076Z,58.42
2022-10-25T14:21:25.812Z,59.74
2022-10-25T14:23:52.506Z,59.46
2022-10-25T14:26:21.245Z,59.51
2022-10-25T14:28:48.207Z,60.25
2022-10-25T14:31:19.853Z,60.19
2022-10-25T14:33:53.940Z,61.10
2022-10-25T14:36:36.528Z,61.25
2022-10-25T14:39:15.406Z,62.38
2022-10-25T14:41:53.320Z,62.01
2022-10-25T14:44:27.892Z,61.47
2022-10-25T14:46:59.669Z,61.89
2022-10-25T14:49:27.349Z,62.07
2022-10-25T14:51:59.553Z,62.75
2022-10-25T14:54:30.598Z,63.50
2022-10-25T14:57:08.025Z,64.38
2022-10-25T14:59:42.745Z,65.26
2022-10-25T15:02:19.599Z,65.87
2022-10-25T15:04:48.834Z,66.91
2022-10-25T15:07:36.558Z,67.49
2022-10-25T15:12:35.926Z,68.67
2022-10-25T15:15:34.589Z,70.16
2022-10-25T15:18:01.031Z,70.61
2022-10-25T15:20:30.427Z,71.24
2022-10-25T15:23:14.945Z,71.12
2022-10-25T15:25:41.364Z,71.33
2022-10-25T15:28:15.261Z,72.07
2022-10-25T15:30:42.962Z,73.48
2022-10-25T15:33:18.260Z,73.92
2022-10-25T15:36:05.370Z,74.41
2022-10-25T15:39:05.897Z,74.38
2022-10-25T15:41:21.357Z,74.37
2022-10-25T15:43:47.810Z,75.15
2022-10-25T15:46:23.129Z,75.41
2022-10-25T15:48:49.637Z,75.87
2022-10-25T15:51:16.141Z,76.36
2022-10-25T15:53:42.569Z,76.44
2022-10-25T15:56:13.398Z,76.91
2022-10-25T15:58:39.788Z,77.58
2022-10-25T16:01:06.784Z,77.55
2022-10-25T16:03:33.347Z,77.50
2022-10-25T16:05:59.799Z,77.75
2022-10-25T16:08:26.250Z,78.21
2022-10-25T16:10:53.397Z,78.58
2022-10-25T16:13:29.759Z,79.07
2022-10-25T16:15:56.478Z,79.83
2022-10-25T16:20:50.404Z,81.13
2022-10-25T16:23:22.584Z,81.56
2022-10-25T16:25:48.976Z,81.87
2022-10-25T16:28:15.452Z,81.91
2022-10-25T16:30:43.857Z,81.74
2022-10-25T16:33:11.516Z,82.42
2022-10-25T16:35:37.925Z,82.44
2022-10-25T16:38:04.484Z,82.72
2022-10-25T16:40:31.008Z,82.30
2022-10-25T16:42:58.343Z,82.41
2022-10-25T16:45:29.114Z,81.81
2022-10-25T16:47:57.167Z,80.40
2022-10-25T16:50:27.184Z,81.58
2022-10-25T16:52:59.225Z,82.43
2022-10-25T16:55:28.697Z,82.37
2022-10-25T16:57:56.629Z,82.40
2022-10-25T17:00:23.766Z,82.63
2022-10-25T17:02:50.749Z,83.30
2022-10-25T17:05:25.844Z,83.14
2022-10-25T17:07:52.619Z,83.48
2022-10-25T17:10:20.410Z,83.91
2022-10-25T17:12:49.136Z,84.87
2022-10-25T17:15:16.534Z,84.20
2022-10-25T17:17:45.496Z,83.26
2022-10-25T17:20:14.448Z,83.05
2022-10-25T17:22:41.181Z,83.45
2022-10-25T17:25:09.430Z,84.27
2022-10-25T17:27:38.100Z,84.46
2022-10-25T17:30:06.348Z,83.83
2022-10-25T17:32:32.789Z,83.88
2022-10-25T17:34:59.256Z,83.73
2022-10-25T17:37:25.683Z,84.18
2022-10-25T17:39:52.174Z,84.69
2022-10-25T17:42:20.169Z,86.15
2022-10-25T17:44:46.765Z,86.90
2022-10-25T17:47:14.216Z,86.43
2022-10-25T17:49:40.916Z,86.48
2022-10-25T17:52:07.962Z,86.00
2022-10-25T17:54:34.808Z,86.44
2022-10-25T17:57:02.882Z,85.06
2022-10-25T17:59:30.231Z,85.69
2022-10-25T18:01:57.608Z,87.12
2022-10-25T18:04:24.446Z,86.19
2022-10-25T18:06:50.937Z,86.48
2022-10-25T18:09:17.847Z,86.08
2022-10-25T18:11:44.985Z,87.80
2022-10-25T18:14:11.450Z,89.11
2022-10-25T18:16:38.150Z,89.52
2022-10-25T18:19:05.827Z,90.72
2022-10-25T18:21:33.711Z,91.07
2022-10-25T18:24:04.790Z,90.92
2022-10-25T18:26:32.160Z,91.49
2022-10-25T18:28:59.416Z,91.56
2022-10-25T18:31:27.239Z,91.51
2022-10-25T18:33:55.397Z,91.94
2022-10-25T18:36:21.962Z,91.81
2022-10-25T18:38:49.414Z,92.36
2022-10-25T18:41:19.112Z,92.97
2022-10-25T18:43:46.085Z,93.34
2022-10-25T18:46:12.700Z,94.04
2022-10-25T18:48:39.221Z,94.04
2022-10-25T18:51:07.759Z,94.19
2022-10-25T18:53:38.542Z,93.32
2022-10-25T18:56:09.717Z,92.80
2022-10-25T18:58:36.170Z,93.45
2022-10-25T19:01:11.091Z,93.52
2022-10-25T19:03:37.967Z,93.05
2022-10-25T19:06:05.181Z,93.67
2022-10-25T19:08:31.881Z,93.35
2022-10-25T19:11:03.271Z,94.14
2022-10-25T19:13:29.861Z,93.80
2022-10-25T19:15:57.995Z,93.26
2022-10-25T19:18:26.368Z,93.01
2022-10-25T19:20:53.215Z,93.03
2022-10-25T19:23:19.679Z,93.18
2022-10-25T19:25:46.293Z,93.20
2022-10-25T19:28:12.657Z,93.82
2022-10-25T19:30:40.394Z,93.45
2022-10-25T19:33:06.996Z,94.24
2022-10-25T19:35:33.889Z,94.90
2022-10-25T19:38:00.432Z,95.02
2022-10-25T19:40:26.950Z,95.03
2022-10-25T19:42:53.663Z,95.36
2022-10-25T19:45:20.135Z,95.22
2022-10-25T19:47:47.126Z,96.27
2022-10-25T19:50:14.111Z,96.25
2022-10-25T19:52:40.592Z,96.41
2022-10-25T19:55:07.343Z,96.41
2022-10-25T19:57:34.644Z,96.60
2022-10-25T20:00:02.087Z,97.29
2022-10-25T20:02:28.619Z,97.31
2022-10-25T20:04:55.523Z,97.13
2022-10-25T20:07:22.018Z,96.88
2022-10-25T20:09:48.409Z,96.97
2022-10-25T20:12:14.833Z,97.11
2022-10-25T20:14:42.741Z,97.02
2022-10-25T20:17:09.187Z,97.02
2022-10-25T20:19:35.623Z,96.37
2022-10-25T20:22:02.034Z,96.49
2022-10-25T20:24:28.539Z,96.48
2022-10-25T20:26:55.006Z,96.07
2022-10-25T20:29:23.827Z,96.24
2022-10-25T20:31:51.110Z,96.11
2022-10-25T20:34:19.214Z,95.98
2022-10-25T20:36:46.853Z,95.94
2022-10-25T20:39:13.743Z,95.92
2022-10-25T20:41:40.464Z,96.44
2022-10-25T20:44:08.644Z,96.53
2022-10-25T20:46:35.745Z,96.04
2022-10-25T20:49:03.330Z,95.89
2022-10-25T20:51:29.746Z,95.89
2022-10-25T20:53:57.013Z,96.01
2022-10-25T20:56:24.349Z,96.00
2022-10-25T20:58:51.180Z,95.95
2022-10-25T21:01:18.583Z,96.78
2022-10-25T21:03:45.119Z,96.63
2022-10-25T21:06:12.736Z,96.83
2022-10-25T21:08:39.777Z,96.75
2022-10-25T21:11:11.257Z,96.37
2022-10-25T21:13:37.885Z,96.98
2022-10-25T21:16:09.624Z,96.56
2022-10-25T21:18:37.244Z,96.26
2022-10-25T21:21:06.745Z,96.51
2022-10-25T21:23:33.309Z,96.58
2022-10-25T21:26:05.738Z,96.36
2022-10-25T21:28:34.897Z,96.79
2022-10-25T21:31:02.689Z,96.66
2022-10-25T21:33:29.184Z,96.32
2022-10-25T21:35:55.624Z,96.67
2022-10-25T21:38:22.016Z,96.65
2022-10-25T21:40:48.506Z,96.27
2022-10-25T21:43:14.934Z,96.14
2022-10-25T21:45:42.028Z,96.63
2022-10-25T21:48:08.453Z,96.31
2022-10-25T21:50:34.868Z,97.19
2022-10-25T21:53:01.313Z,96.48
2022-10-25T21:55:27.715Z,96.80
2022-10-25T21:57:54.735Z,97.81
2022-10-25T22:00:21.351Z,96.39
2022-10-25T22:02:47.754Z,95.83
2022-10-25T22:05:14.184Z,96.19
2022-10-25T22:07:40.660Z,96.38
2022-10-25T22:10:07.347Z,96.93
2022-10-25T22:12:33.766Z,96.88
2022-10-25T22:15:00.137Z,96.72
2022-10-25T22:17:26.559Z,96.64
2022-10-25T22:19:52.955Z,98.36
2022-10-25T22:22:19.436Z,98.54
2022-10-25T22:24:45.881Z,99.49
2022-10-25T22:27:12.330Z,99.49
2022-10-25T22:29:38.713Z,100.00
2022-10-25T22:32:05.328Z,99.86
2022-10-25T22:34:31.717Z,100.00
2022-10-25T22:36:58.125Z,100.00
2022-10-25T22:39:24.593Z,99.81
2022-10-25T22:41:52.963Z,99.14
2022-10-25T22:44:19.462Z,98.75
2022-10-25T22:46:45.915Z,99.14
2022-10-25T22:49:12.299Z,98.46
2022-10-25T22:51:39.002Z,98.33
2022-10-25T22:54:05.926Z,98.16
2022-10-25T22:56:33.317Z,98.62
2022-10-25T22:59:02.449Z,97.49
2022-10-25T23:01:34.036Z,97.65
2022-10-25T23:04:00.911Z,97.42
2022-10-25T23:06:33.088Z,97.42
2022-10-25T23:09:01.521Z,97.06
2022-10-25T23:11:30.241Z,97.27
2022-10-25T23:13:57.904Z,97.44
2022-10-25T23:16:24.778Z,97.82
2022-10-25T23:18:51.312Z,97.97
2022-10-25T23:21:20.841Z,97.24
2022-10-25T23:23:47.724Z,97.23
2022-10-25T23:26:19.745Z,97.38
2022-10-25T23:28:46.285Z,97.65
2022-10-25T23:31:13.589Z,97.58
2022-10-25T23:33:41.714Z,97.44
2022-10-25T23:36:12.089Z,97.94
2022-10-25T23:38:38.736Z,97.68
2022-10-25T23:41:05.893Z,98.05
2022-10-25T23:43:32.599Z,98.07
2022-10-25T23:45:59.264Z,98.56
2022-10-25T23:48:25.865Z,99.33
2022-10-25T23:51:03.914Z,99.67
2022-10-25T23:53:30.648Z,99.93
2022-10-25T23:55:57.754Z,99.38
2022-10-25T23:58:24.778Z,98.89
